createdAt,value
2019-01-21T00:01:12.953Z,27.03
2019-01-21T00:07:17.662Z,27.17
2019-01-21T00:13:23.231Z,26.53
2019-01-21T00:19:27.868Z,27.40
2019-01-21T00:25:34.411Z,27.90
2019-01-21T00:31:38.979Z,27.33
2019-01-21T00:37:43.579Z,27.60
2019-01-21T00:43:49.018Z,26.57
2019-01-21T00:49:53.755Z,25.07
2019-01-21T00:55:58.504Z,28.67
2019-01-21T01:02:03.162Z,26.80
2019-01-21T01:08:07.868Z,26.80
2019-01-21T01:14:12.456Z,27.07
2019-01-21T01:20:23.533Z,25.30
2019-01-21T01:26:28.142Z,26.77
2019-01-21T01:32:32.856Z,24.50
2019-01-21T01:38:37.452Z,23.50
2019-01-21T01:44:42.119Z,27.80
2019-01-21T01:50:47.128Z,27.80
2019-01-21T01:56:51.780Z,25.83
2019-01-21T02:02:57.118Z,24.50
2019-01-21T02:09:01.848Z,28.67
2019-01-21T02:15:11.140Z,25.73
2019-01-21T02:21:15.776Z,27.23
2019-01-21T02:27:23.465Z,25.90
2019-01-21T02:34:14.404Z,25.77
2019-01-21T02:40:41.363Z,27.23
2019-01-21T02:46:59.293Z,26.03
2019-01-21T02:53:27.932Z,26.13
2019-01-21T02:59:50.225Z,25.47
2019-01-21T03:06:02.379Z,25.67
2019-01-21T03:12:29.563Z,27.33
2019-01-21T03:18:41.505Z,25.50
2019-01-21T03:25:22.866Z,26.43
2019-01-21T03:31:42.349Z,26.10
2019-01-21T03:38:09.504Z,24.83
2019-01-21T03:44:27.190Z,26.93
2019-01-21T03:50:44.908Z,25.77
2019-01-21T03:56:54.104Z,27.67
2019-01-21T04:03:18.331Z,27.17
2019-01-21T04:09:51.523Z,26.50
2019-01-21T04:16:24.060Z,25.17
2019-01-21T04:23:00.277Z,25.87
2019-01-21T04:29:34.582Z,26.77
2019-01-21T04:36:10.718Z,25.40
2019-01-21T04:42:24.494Z,29.03
2019-01-21T04:48:36.658Z,27.23
2019-01-21T04:55:12.948Z,28.97
2019-01-21T05:01:46.239Z,28.13
2019-01-21T05:08:32.904Z,32.97
2019-01-21T05:14:57.076Z,29.40
2019-01-21T05:21:23.935Z,29.23
2019-01-21T05:27:35.672Z,27.37
2019-01-21T05:34:11.933Z,26.47
2019-01-21T05:40:41.758Z,25.50
2019-01-21T05:46:59.089Z,24.93
2019-01-21T05:53:30.446Z,26.33
2019-01-21T06:00:22.912Z,28.33
2019-01-21T06:06:41.590Z,28.90
2019-01-21T06:12:56.553Z,28.07
2019-01-21T06:19:28.836Z,28.57
2019-01-21T06:26:15.396Z,29.07
2019-01-21T06:32:48.589Z,28.13
2019-01-21T06:39:03.266Z,30.00
2019-01-21T06:45:42.047Z,26.47
2019-01-21T06:52:23.090Z,29.27
2019-01-21T06:58:40.701Z,31.00
2019-01-21T07:04:52.457Z,28.90
2019-01-21T07:11:04.689Z,27.10
2019-01-21T07:17:38.070Z,26.90
2019-01-21T07:23:58.795Z,28.70
2019-01-21T07:30:19.224Z,27.17
2019-01-21T07:36:53.930Z,28.47
2019-01-21T07:43:26.712Z,26.03
2019-01-21T07:50:17.683Z,23.50
2019-01-21T07:56:29.619Z,24.73
2019-01-21T08:02:48.370Z,25.23
2019-01-21T08:09:09.192Z,25.97
2019-01-21T08:15:35.655Z,27.53
2019-01-21T08:21:56.173Z,27.20
2019-01-21T08:28:08.237Z,25.90
2019-01-21T08:34:51.635Z,27.83
2019-01-21T08:41:06.723Z,28.47
2019-01-21T08:47:28.068Z,24.67
2019-01-21T08:53:45.891Z,28.27
2019-01-21T09:00:01.057Z,29.27
2019-01-21T09:06:20.769Z,32.20
2019-01-21T09:12:50.888Z,28.07
2019-01-21T09:19:02.807Z,29.50
2019-01-21T09:25:50.846Z,29.10
2019-01-21T09:32:19.217Z,28.03
2019-01-21T09:39:05.668Z,30.17
2019-01-21T09:45:14.941Z,28.80
2019-01-21T09:51:20.147Z,27.10
2019-01-21T09:57:25.169Z,27.60
2019-01-21T10:03:30.501Z,26.50
2019-01-21T10:10:01.985Z,32.03
2019-01-21T10:16:23.095Z,29.70
2019-01-21T10:22:48.620Z,30.17
2019-01-21T10:29:00.457Z,26.93
2019-01-21T10:35:27.593Z,50.43
2019-01-21T10:41:48.541Z,32.50
2019-01-21T10:48:04.832Z,25.53
2019-01-21T10:54:50.621Z,26.40
2019-01-21T11:01:36.877Z,26.37
2019-01-21T11:08:21.589Z,23.47
2019-01-21T11:14:50.995Z,24.63
2019-01-21T11:21:15.127Z,19.50
2019-01-21T11:27:47.838Z,21.13
2019-01-21T11:34:02.845Z,19.40
2019-01-21T11:40:17.687Z,19.60
2019-01-21T11:46:50.523Z,18.00
2019-01-21T11:53:02.496Z,20.43
2019-01-21T11:59:14.236Z,21.60
2019-01-21T12:05:25.140Z,19.40
2019-01-21T12:11:39.912Z,17.20
2019-01-21T12:18:03.741Z,18.13
2019-01-21T12:24:13.361Z,19.30
2019-01-21T12:30:35.367Z,20.47
2019-01-21T12:36:44.634Z,19.60
2019-01-21T12:42:53.919Z,20.60
2019-01-21T12:49:09.346Z,18.80
2019-01-21T12:55:33.279Z,16.40
2019-01-21T13:01:45.281Z,21.63
2019-01-21T13:08:06.172Z,18.17
2019-01-21T13:14:36.298Z,34.40
2019-01-21T13:21:06.405Z,20.77
2019-01-21T13:27:15.678Z,19.67
2019-01-21T13:33:40.579Z,18.50
2019-01-21T13:40:21.335Z,19.27
2019-01-21T13:46:42.313Z,18.20
2019-01-21T13:53:08.165Z,19.00
2019-01-21T13:59:36.808Z,17.50
2019-01-21T14:06:39.390Z,19.00
2019-01-21T14:13:26.491Z,17.50
2019-01-21T14:20:16.612Z,17.43
2019-01-21T14:33:22.827Z,16.80
2019-01-21T14:40:07.787Z,17.20
2019-01-21T14:47:10.556Z,17.27
2019-01-21T14:54:13.533Z,15.27
2019-01-21T15:01:16.690Z,16.63
2019-01-21T15:08:01.692Z,15.57
2019-01-21T15:14:20.525Z,15.30
2019-01-21T15:21:23.942Z,15.60
2019-01-21T15:28:26.730Z,15.83
2019-01-21T15:35:29.358Z,14.70
2019-01-21T15:42:32.205Z,16.00
2019-01-21T15:49:17.223Z,15.57
2019-01-21T15:56:02.132Z,17.60
2019-01-21T16:03:04.719Z,15.43
2019-01-21T16:09:49.557Z,16.27
2019-01-21T16:16:28.318Z,13.77
2019-01-21T16:23:30.994Z,14.73
2019-01-21T16:43:35.575Z,15.97
2019-01-21T16:49:59.529Z,17.73
2019-01-21T16:56:23.534Z,16.60
2019-01-21T17:09:17.002Z,18.10
2019-01-21T17:15:33.589Z,18.90
2019-01-21T17:28:28.091Z,17.20
2019-01-21T17:41:15.274Z,17.03
2019-01-21T17:54:08.621Z,18.47
2019-01-21T18:00:32.682Z,17.27
2019-01-21T18:06:56.674Z,18.67
2019-01-21T18:13:20.650Z,18.83
2019-01-21T18:26:34.736Z,19.47
2019-01-21T18:32:58.816Z,19.53
2019-01-21T18:39:16.451Z,17.40
2019-01-21T18:45:40.583Z,17.70
2019-01-21T18:58:54.318Z,18.90
2019-01-21T19:12:01.350Z,21.30
2019-01-21T19:18:44.443Z,17.47
2019-01-21T19:25:29.426Z,18.60
2019-01-21T19:31:53.402Z,18.63
2019-01-21T19:38:36.437Z,20.67
2019-01-21T19:45:00.413Z,19.90
2019-01-21T19:51:24.569Z,21.27
2019-01-21T19:58:07.714Z,18.40
2019-01-21T20:04:31.812Z,18.57
2019-01-21T20:11:14.887Z,18.67
2019-01-21T20:17:32.204Z,18.00
2019-01-21T20:37:28.130Z,20.20
2019-01-21T20:43:52.191Z,20.70
2019-01-21T20:50:37.091Z,20.53
2019-01-21T20:57:20.258Z,20.17
2019-01-21T21:10:34.429Z,21.87
2019-01-21T21:16:58.470Z,20.90
2019-01-21T21:29:51.711Z,19.93
2019-01-21T21:43:04.585Z,20.90
2019-01-21T21:49:47.760Z,22.73
2019-01-21T22:02:34.365Z,21.37
2019-01-21T22:09:17.971Z,20.20
2019-01-21T22:22:34.874Z,20.00
2019-01-21T22:29:16.753Z,21.37
2019-01-21T22:55:29.996Z,21.00
2019-01-21T23:01:45.307Z,22.47
2019-01-21T23:14:38.493Z,22.70
2019-01-21T23:21:02.509Z,19.70
2019-01-21T23:27:26.478Z,19.10
2019-01-21T23:33:52.194Z,18.30
2019-01-21T23:47:24.857Z,18.90
2019-01-21T23:53:41.565Z,20.60
